CheckWX is a tool to help pilots better visualize weather data.  It is not intended as a substitute for an official pre-flight weather briefing.

13:19:44 UTC

KMWT METAR
Mount Ida Airport
Mount Ida, Arkansas, USA
Current

16 mins ago

KMWT 071304Z AUTO 00000KT 1 1/4SM BR OVC002 23/23 A2999 RMK AO2 T02330228
Observed
Jul-7 @ 13:04 UTC
Visibility
1 1/4 SM
Flight Rules
LIFR
Conditions
Mist
Cloud Levels
  • Overcast at 200' AGL
Temperature
23°C / 73°F
Dewpoint
23°C / 73°F
Humidity
100%
Altimeter
29.99" Hg
Pressure
1015.62 hPa
Previous

27 mins ago

KMWT 071253Z AUTO 00000KT 2SM BR OVC002 23/23 A2999 RMK AO2 VIS 1 1/2V3 SLP143 T02330228
Observed
Jul-7 @ 12:53 UTC
Visibility
2 SM
Flight Rules
LIFR
Conditions
Mist
Cloud Levels
  • Overcast at 200' AGL
Temperature
23°C / 73°F
Dewpoint
23°C / 73°F
Humidity
100%
Altimeter
29.99" Hg
Pressure
1015.62 hPa
Previous

49 mins ago

KMWT 071231Z AUTO 00000KT 3/4SM BR VV002 23/23 A2998 RMK AO2 T02330228
Observed
Jul-7 @ 12:31 UTC
Visibility
Flight Rules
LIFR
Conditions
Mist
Cloud Levels
  • Vertical visibility
Temperature
23°C / 73°F
Dewpoint
23°C / 73°F
Humidity
100%
Altimeter
29.98" Hg
Pressure
1015.22 hPa